sensor_id;sensor_type;location;lat;lon;timestamp;temperature;humidity
24011;DHT22;12217;50.792;4.372;2022-12-18T00:01:45;0.70;99.90
24011;DHT22;12217;50.792;4.372;2022-12-18T00:04:22;0.60;99.90
24011;DHT22;12217;50.792;4.372;2022-12-18T00:06:48;0.50;99.90
24011;DHT22;12217;50.792;4.372;2022-12-18T00:09:14;0.40;99.90
24011;DHT22;12217;50.792;4.372;2022-12-18T00:11:40;0.40;99.90
24011;DHT22;12217;50.792;4.372;2022-12-18T00:14:05;0.50;99.90
24011;DHT22;12217;50.792;4.372;2022-12-18T00:16:31;0.50;99.90
24011;DHT22;12217;50.792;4.372;2022-12-18T00:18:59;0.60;99.90
24011;DHT22;12217;50.792;4.372;2022-12-18T00:21:26;0.40;99.90
24011;DHT22;12217;50.792;4.372;2022-12-18T00:23:52;0.40;99.90
24011;DHT22;12217;50.792;4.372;2022-12-18T00:26:20;0.30;99.90
24011;DHT22;12217;50.792;4.372;2022-12-18T00:28:47;0.30;99.90
24011;DHT22;12217;50.792;4.372;2022-12-18T00:31:18;0.20;99.90
24011;DHT22;12217;50.792;4.372;2022-12-18T00:33:44;0.20;99.90
24011;DHT22;12217;50.792;4.372;2022-12-18T00:36:13;0.20;99.90
24011;DHT22;12217;50.792;4.372;2022-12-18T00:38:40;0.10;99.90
24011;DHT22;12217;50.792;4.372;2022-12-18T00:41:06;0.00;99.90
24011;DHT22;12217;50.792;4.372;2022-12-18T00:43:32;-0.10;99.90
24011;DHT22;12217;50.792;4.372;2022-12-18T00:45:57;-0.10;99.90
24011;DHT22;12217;50.792;4.372;2022-12-18T00:48:23;-0.10;99.90
24011;DHT22;12217;50.792;4.372;2022-12-18T00:50:50;0.00;99.90
24011;DHT22;12217;50.792;4.372;2022-12-18T00:53:16;-0.10;99.90
24011;DHT22;12217;50.792;4.372;2022-12-18T00:55:42;-0.30;99.90
24011;DHT22;12217;50.792;4.372;2022-12-18T00:58:09;-0.30;99.90
24011;DHT22;12217;50.792;4.372;2022-12-18T01:00:35;-0.10;99.90
24011;DHT22;12217;50.792;4.372;2022-12-18T01:03:01;-0.30;99.90
24011;DHT22;12217;50.792;4.372;2022-12-18T01:05:27;-0.40;99.90
24011;DHT22;12217;50.792;4.372;2022-12-18T01:07:53;-0.30;99.90
24011;DHT22;12217;50.792;4.372;2022-12-18T01:10:19;-0.30;99.90
24011;DHT22;12217;50.792;4.372;2022-12-18T01:12:44;-0.30;99.90
24011;DHT22;12217;50.792;4.372;2022-12-18T01:15:12;-0.40;99.90
24011;DHT22;12217;50.792;4.372;2022-12-18T01:17:38;-0.50;99.90
24011;DHT22;12217;50.792;4.372;2022-12-18T01:20:04;-0.40;99.90
24011;DHT22;12217;50.792;4.372;2022-12-18T01:22:34;-0.40;99.90
24011;DHT22;12217;50.792;4.372;2022-12-18T01:24:59;-0.30;99.90
24011;DHT22;12217;50.792;4.372;2022-12-18T01:27:25;-0.20;99.90
24011;DHT22;12217;50.792;4.372;2022-12-18T01:29:51;-0.10;99.90
24011;DHT22;12217;50.792;4.372;2022-12-18T01:32:17;-0.20;99.90
24011;DHT22;12217;50.792;4.372;2022-12-18T01:34:42;0.00;99.90
24011;DHT22;12217;50.792;4.372;2022-12-18T01:37:08;0.00;99.90
24011;DHT22;12217;50.792;4.372;2022-12-18T01:39:34;0.00;99.90
24011;DHT22;12217;50.792;4.372;2022-12-18T01:42:02;0.10;99.90
24011;DHT22;12217;50.792;4.372;2022-12-18T01:45:00;0.20;99.90
24011;DHT22;12217;50.792;4.372;2022-12-18T01:52:43;0.30;99.90
24011;DHT22;12217;50.792;4.372;2022-12-18T01:55:11;0.20;99.90
24011;DHT22;12217;50.792;4.372;2022-12-18T01:57:38;0.30;99.90
24011;DHT22;12217;50.792;4.372;2022-12-18T02:00:09;0.20;99.90
24011;DHT22;12217;50.792;4.372;2022-12-18T02:02:35;0.20;99.90
24011;DHT22;12217;50.792;4.372;2022-12-18T02:05:02;0.20;99.90
24011;DHT22;12217;50.792;4.372;2022-12-18T02:10:31;0.30;99.90
24011;DHT22;12217;50.792;4.372;2022-12-18T02:13:20;0.10;99.90
24011;DHT22;12217;50.792;4.372;2022-12-18T02:16:05;0.00;99.90
24011;DHT22;12217;50.792;4.372;2022-12-18T02:18:36;-0.10;99.90
24011;DHT22;12217;50.792;4.372;2022-12-18T02:26:48;-0.10;99.90
24011;DHT22;12217;50.792;4.372;2022-12-18T02:29:19;-0.10;99.90
24011;DHT22;12217;50.792;4.372;2022-12-18T02:31:51;-0.20;99.90
24011;DHT22;12217;50.792;4.372;2022-12-18T02:34:18;-0.40;99.90
24011;DHT22;12217;50.792;4.372;2022-12-18T02:36:45;-0.30;99.90
24011;DHT22;12217;50.792;4.372;2022-12-18T02:39:13;-0.50;99.90
24011;DHT22;12217;50.792;4.372;2022-12-18T02:41:40;-0.60;99.90
24011;DHT22;12217;50.792;4.372;2022-12-18T02:44:12;-0.60;99.90
24011;DHT22;12217;50.792;4.372;2022-12-18T02:46:42;-0.50;99.90
24011;DHT22;12217;50.792;4.372;2022-12-18T02:57:46;-0.80;99.90
24011;DHT22;12217;50.792;4.372;2022-12-18T03:03:33;-0.90;99.90
24011;DHT22;12217;50.792;4.372;2022-12-18T03:05:53;-0.90;99.90
24011;DHT22;12217;50.792;4.372;2022-12-18T03:08:34;-0.80;99.90
24011;DHT22;12217;50.792;4.372;2022-12-18T03:11:07;-0.80;99.90
24011;DHT22;12217;50.792;4.372;2022-12-18T03:13:40;-0.80;99.90
24011;DHT22;12217;50.792;4.372;2022-12-18T03:16:11;-0.80;99.90
24011;DHT22;12217;50.792;4.372;2022-12-18T03:18:50;-0.80;99.90
24011;DHT22;12217;50.792;4.372;2022-12-18T03:21:20;-0.80;99.90
24011;DHT22;12217;50.792;4.372;2022-12-18T03:23:49;-0.90;99.90
24011;DHT22;12217;50.792;4.372;2022-12-18T03:26:20;-0.90;99.90
24011;DHT22;12217;50.792;4.372;2022-12-18T03:28:52;-0.90;99.90
24011;DHT22;12217;50.792;4.372;2022-12-18T03:31:20;-0.90;99.90
24011;DHT22;12217;50.792;4.372;2022-12-18T03:33:55;-0.90;99.90
24011;DHT22;12217;50.792;4.372;2022-12-18T03:36:23;-0.90;99.90
24011;DHT22;12217;50.792;4.372;2022-12-18T03:38:49;-0.80;99.90
24011;DHT22;12217;50.792;4.372;2022-12-18T03:44:29;-1.00;99.90
24011;DHT22;12217;50.792;4.372;2022-12-18T03:47:23;-1.00;99.90
24011;DHT22;12217;50.792;4.372;2022-12-18T03:50:00;-1.00;99.90
24011;DHT22;12217;50.792;4.372;2022-12-18T03:55:15;-1.00;99.90
24011;DHT22;12217;50.792;4.372;2022-12-18T03:57:42;-1.00;99.90
24011;DHT22;12217;50.792;4.372;2022-12-18T04:00:15;-1.00;99.90
24011;DHT22;12217;50.792;4.372;2022-12-18T04:02:46;-1.10;99.90
24011;DHT22;12217;50.792;4.372;2022-12-18T04:05:14;-1.10;99.90
24011;DHT22;12217;50.792;4.372;2022-12-18T04:07:41;-1.10;99.90
24011;DHT22;12217;50.792;4.372;2022-12-18T04:10:08;-1.10;99.90
24011;DHT22;12217;50.792;4.372;2022-12-18T04:12:37;-1.20;99.90
24011;DHT22;12217;50.792;4.372;2022-12-18T04:15:04;-1.10;99.90
24011;DHT22;12217;50.792;4.372;2022-12-18T04:17:29;-1.10;99.90
24011;DHT22;12217;50.792;4.372;2022-12-18T04:19:55;-1.20;99.90
24011;DHT22;12217;50.792;4.372;2022-12-18T04:22:21;-1.20;99.90
24011;DHT22;12217;50.792;4.372;2022-12-18T04:24:46;-1.20;99.90
24011;DHT22;12217;50.792;4.372;2022-12-18T04:27:12;-1.30;99.90
24011;DHT22;12217;50.792;4.372;2022-12-18T04:29:38;-1.30;99.90
24011;DHT22;12217;50.792;4.372;2022-12-18T04:32:03;-1.30;99.90
24011;DHT22;12217;50.792;4.372;2022-12-18T04:34:29;-1.30;99.90
24011;DHT22;12217;50.792;4.372;2022-12-18T04:36:55;-1.30;99.90
24011;DHT22;12217;50.792;4.372;2022-12-18T04:39:20;-1.30;99.90
24011;DHT22;12217;50.792;4.372;2022-12-18T04:41:46;-1.30;99.90
24011;DHT22;12217;50.792;4.372;2022-12-18T04:44:12;-1.40;99.90
24011;DHT22;12217;50.792;4.372;2022-12-18T04:46:37;-1.50;99.90
24011;DHT22;12217;50.792;4.372;2022-12-18T04:49:03;-1.30;99.90
24011;DHT22;12217;50.792;4.372;2022-12-18T04:51:29;-1.40;99.90
24011;DHT22;12217;50.792;4.372;2022-12-18T04:53:54;-1.50;99.90
24011;DHT22;12217;50.792;4.372;2022-12-18T04:56:20;-1.60;99.90
24011;DHT22;12217;50.792;4.372;2022-12-18T04:58:46;-1.60;99.90
24011;DHT22;12217;50.792;4.372;2022-12-18T05:01:13;-1.50;99.90
24011;DHT22;12217;50.792;4.372;2022-12-18T05:03:39;-1.60;99.90
24011;DHT22;12217;50.792;4.372;2022-12-18T05:06:06;-1.70;99.90
24011;DHT22;12217;50.792;4.372;2022-12-18T05:08:32;-1.60;99.90
24011;DHT22;12217;50.792;4.372;2022-12-18T05:11:03;-1.60;99.90
24011;DHT22;12217;50.792;4.372;2022-12-18T05:13:30;-1.50;99.90
24011;DHT22;12217;50.792;4.372;2022-12-18T05:15:56;-1.50;99.90
24011;DHT22;12217;50.792;4.372;2022-12-18T05:18:23;-1.50;99.90
24011;DHT22;12217;50.792;4.372;2022-12-18T05:20:50;-1.70;99.90
24011;DHT22;12217;50.792;4.372;2022-12-18T05:23:16;-1.70;99.90
24011;DHT22;12217;50.792;4.372;2022-12-18T05:25:41;-1.70;99.90
24011;DHT22;12217;50.792;4.372;2022-12-18T05:28:07;-1.60;99.90
24011;DHT22;12217;50.792;4.372;2022-12-18T05:30:33;-1.70;99.90
24011;DHT22;12217;50.792;4.372;2022-12-18T05:32:58;-1.80;99.90
24011;DHT22;12217;50.792;4.372;2022-12-18T05:35:24;-1.80;99.90
24011;DHT22;12217;50.792;4.372;2022-12-18T05:37:50;-1.70;99.90
24011;DHT22;12217;50.792;4.372;2022-12-18T05:40:15;-1.60;99.90
24011;DHT22;12217;50.792;4.372;2022-12-18T05:42:41;-1.60;99.90
24011;DHT22;12217;50.792;4.372;2022-12-18T05:45:08;-1.60;99.90
24011;DHT22;12217;50.792;4.372;2022-12-18T05:47:34;-1.60;99.90
24011;DHT22;12217;50.792;4.372;2022-12-18T05:50:00;-1.60;99.90
24011;DHT22;12217;50.792;4.372;2022-12-18T05:52:25;-1.60;99.90
24011;DHT22;12217;50.792;4.372;2022-12-18T05:54:51;-1.50;99.90
24011;DHT22;12217;50.792;4.372;2022-12-18T05:57:17;-1.40;99.90
24011;DHT22;12217;50.792;4.372;2022-12-18T05:59:42;-1.30;99.90
24011;DHT22;12217;50.792;4.372;2022-12-18T06:02:08;-1.40;99.90
24011;DHT22;12217;50.792;4.372;2022-12-18T06:04:34;-1.50;99.90
24011;DHT22;12217;50.792;4.372;2022-12-18T06:06:59;-1.50;99.90
24011;DHT22;12217;50.792;4.372;2022-12-18T06:09:25;-1.40;99.90
24011;DHT22;12217;50.792;4.372;2022-12-18T06:11:51;-1.40;99.90
24011;DHT22;12217;50.792;4.372;2022-12-18T06:14:17;-1.30;99.90
24011;DHT22;12217;50.792;4.372;2022-12-18T06:16:43;-1.30;99.90
24011;DHT22;12217;50.792;4.372;2022-12-18T06:19:14;-1.20;99.90
24011;DHT22;12217;50.792;4.372;2022-12-18T06:21:40;-1.40;99.90
24011;DHT22;12217;50.792;4.372;2022-12-18T06:24:06;-1.50;99.90
24011;DHT22;12217;50.792;4.372;2022-12-18T06:26:33;-1.50;99.90
24011;DHT22;12217;50.792;4.372;2022-12-18T06:28:59;-1.30;99.90
24011;DHT22;12217;50.792;4.372;2022-12-18T06:31:25;-1.40;99.90
24011;DHT22;12217;50.792;4.372;2022-12-18T06:33:51;-1.30;99.90
24011;DHT22;12217;50.792;4.372;2022-12-18T06:36:17;-1.20;99.90
24011;DHT22;12217;50.792;4.372;2022-12-18T06:38:43;-1.20;99.90
24011;DHT22;12217;50.792;4.372;2022-12-18T06:41:20;-1.30;99.90
24011;DHT22;12217;50.792;4.372;2022-12-18T06:43:46;-1.20;99.90
24011;DHT22;12217;50.792;4.372;2022-12-18T06:46:12;-1.30;99.90
24011;DHT22;12217;50.792;4.372;2022-12-18T06:48:38;-1.40;99.90
24011;DHT22;12217;50.792;4.372;2022-12-18T06:51:04;-1.50;99.90
24011;DHT22;12217;50.792;4.372;2022-12-18T06:53:31;-1.50;99.90
24011;DHT22;12217;50.792;4.372;2022-12-18T06:56:06;-1.60;99.90
24011;DHT22;12217;50.792;4.372;2022-12-18T06:58:32;-1.50;99.90
24011;DHT22;12217;50.792;4.372;2022-12-18T07:01:02;-1.50;99.90
24011;DHT22;12217;50.792;4.372;2022-12-18T07:03:28;-1.50;99.90
24011;DHT22;12217;50.792;4.372;2022-12-18T07:05:54;-1.60;99.90
24011;DHT22;12217;50.792;4.372;2022-12-18T07:08:20;-1.60;99.90
24011;DHT22;12217;50.792;4.372;2022-12-18T07:10:45;-1.50;99.90
24011;DHT22;12217;50.792;4.372;2022-12-18T07:13:11;-1.30;99.90
24011;DHT22;12217;50.792;4.372;2022-12-18T07:15:37;-1.30;99.90
24011;DHT22;12217;50.792;4.372;2022-12-18T07:18:02;-1.30;99.90
24011;DHT22;12217;50.792;4.372;2022-12-18T07:20:28;-1.20;99.90
24011;DHT22;12217;50.792;4.372;2022-12-18T07:22:54;-1.20;99.90
24011;DHT22;12217;50.792;4.372;2022-12-18T07:25:20;-1.20;99.90
24011;DHT22;12217;50.792;4.372;2022-12-18T07:27:45;-1.40;99.90
24011;DHT22;12217;50.792;4.372;2022-12-18T07:30:11;-1.50;99.90
24011;DHT22;12217;50.792;4.372;2022-12-18T07:32:37;-1.50;99.90
24011;DHT22;12217;50.792;4.372;2022-12-18T07:35:03;-1.60;99.90
24011;DHT22;12217;50.792;4.372;2022-12-18T07:37:28;-1.60;99.90
24011;DHT22;12217;50.792;4.372;2022-12-18T07:39:54;-1.50;99.90
24011;DHT22;12217;50.792;4.372;2022-12-18T07:42:20;-1.50;99.90
24011;DHT22;12217;50.792;4.372;2022-12-18T07:45:00;-1.50;99.90
24011;DHT22;12217;50.792;4.372;2022-12-18T07:47:28;-1.40;99.90
24011;DHT22;12217;50.792;4.372;2022-12-18T07:49:56;-1.40;99.90
24011;DHT22;12217;50.792;4.372;2022-12-18T07:52:22;-1.40;99.90
24011;DHT22;12217;50.792;4.372;2022-12-18T07:54:47;-1.50;99.90
24011;DHT22;12217;50.792;4.372;2022-12-18T07:57:15;-1.60;99.90
24011;DHT22;12217;50.792;4.372;2022-12-18T07:59:41;-1.50;99.90
24011;DHT22;12217;50.792;4.372;2022-12-18T08:02:07;-1.60;99.90
24011;DHT22;12217;50.792;4.372;2022-12-18T08:04:33;-1.60;99.90
24011;DHT22;12217;50.792;4.372;2022-12-18T08:06:59;-1.60;99.90
24011;DHT22;12217;50.792;4.372;2022-12-18T08:09:24;-1.60;99.90
24011;DHT22;12217;50.792;4.372;2022-12-18T08:11:50;-1.50;99.90
24011;DHT22;12217;50.792;4.372;2022-12-18T08:14:16;-1.50;99.90
24011;DHT22;12217;50.792;4.372;2022-12-18T08:16:41;-1.50;99.90
24011;DHT22;12217;50.792;4.372;2022-12-18T08:19:10;-1.40;99.90
24011;DHT22;12217;50.792;4.372;2022-12-18T08:21:35;-1.40;99.90
24011;DHT22;12217;50.792;4.372;2022-12-18T08:24:02;-1.40;99.90
24011;DHT22;12217;50.792;4.372;2022-12-18T08:26:30;-1.40;99.90
24011;DHT22;12217;50.792;4.372;2022-12-18T08:28:57;-1.40;99.90
24011;DHT22;12217;50.792;4.372;2022-12-18T08:31:24;-1.30;99.90
24011;DHT22;12217;50.792;4.372;2022-12-18T08:33:51;-1.40;99.90
24011;DHT22;12217;50.792;4.372;2022-12-18T08:36:18;-1.30;99.90
24011;DHT22;12217;50.792;4.372;2022-12-18T08:38:44;-1.20;99.90
24011;DHT22;12217;50.792;4.372;2022-12-18T08:41:12;-1.10;99.90
24011;DHT22;12217;50.792;4.372;2022-12-18T08:43:39;-0.90;99.90
24011;DHT22;12217;50.792;4.372;2022-12-18T08:46:24;-0.90;99.90
24011;DHT22;12217;50.792;4.372;2022-12-18T08:48:51;-0.90;99.90
24011;DHT22;12217;50.792;4.372;2022-12-18T08:51:17;-0.90;99.90
24011;DHT22;12217;50.792;4.372;2022-12-18T08:53:44;-1.00;99.90
24011;DHT22;12217;50.792;4.372;2022-12-18T08:56:11;-1.10;99.90
24011;DHT22;12217;50.792;4.372;2022-12-18T08:58:37;-1.20;99.90
24011;DHT22;12217;50.792;4.372;2022-12-18T09:01:04;-1.10;99.90
24011;DHT22;12217;50.792;4.372;2022-12-18T09:03:30;-0.90;99.90
24011;DHT22;12217;50.792;4.372;2022-12-18T09:05:56;-0.90;99.90
24011;DHT22;12217;50.792;4.372;2022-12-18T09:08:21;-0.90;99.90
24011;DHT22;12217;50.792;4.372;2022-12-18T09:10:49;-0.90;99.90
24011;DHT22;12217;50.792;4.372;2022-12-18T09:13:16;-0.70;99.90
24011;DHT22;12217;50.792;4.372;2022-12-18T09:15:42;-0.70;99.90
24011;DHT22;12217;50.792;4.372;2022-12-18T09:18:09;-0.80;99.90
24011;DHT22;12217;50.792;4.372;2022-12-18T09:20:36;-0.90;99.90
24011;DHT22;12217;50.792;4.372;2022-12-18T09:23:02;-1.00;99.90
24011;DHT22;12217;50.792;4.372;2022-12-18T09:25:29;-0.70;99.90
24011;DHT22;12217;50.792;4.372;2022-12-18T09:27:59;-0.70;99.90
24011;DHT22;12217;50.792;4.372;2022-12-18T09:30:24;-0.70;99.90
24011;DHT22;12217;50.792;4.372;2022-12-18T09:32:50;-0.60;99.90
24011;DHT22;12217;50.792;4.372;2022-12-18T09:35:16;-0.60;99.90
24011;DHT22;12217;50.792;4.372;2022-12-18T09:37:41;-0.70;99.90
24011;DHT22;12217;50.792;4.372;2022-12-18T09:40:16;-0.50;99.90
24011;DHT22;12217;50.792;4.372;2022-12-18T09:42:47;-0.50;99.90
24011;DHT22;12217;50.792;4.372;2022-12-18T09:45:15;-0.40;99.90
24011;DHT22;12217;50.792;4.372;2022-12-18T09:47:43;-0.30;99.90
24011;DHT22;12217;50.792;4.372;2022-12-18T09:50:32;-0.30;99.90
24011;DHT22;12217;50.792;4.372;2022-12-18T09:53:04;-0.30;99.90
24011;DHT22;12217;50.792;4.372;2022-12-18T09:55:37;-0.30;99.90
24011;DHT22;12217;50.792;4.372;2022-12-18T10:00:35;-0.10;99.90
24011;DHT22;12217;50.792;4.372;2022-12-18T10:03:08;-0.20;99.90
24011;DHT22;12217;50.792;4.372;2022-12-18T10:05:40;-0.20;99.90
24011;DHT22;12217;50.792;4.372;2022-12-18T10:10:52;-0.10;99.90
24011;DHT22;12217;50.792;4.372;2022-12-18T10:16:03;0.00;99.90
24011;DHT22;12217;50.792;4.372;2022-12-18T10:21:36;0.10;99.90
24011;DHT22;12217;50.792;4.372;2022-12-18T10:26:43;0.10;99.90
24011;DHT22;12217;50.792;4.372;2022-12-18T10:29:15;0.20;99.90
24011;DHT22;12217;50.792;4.372;2022-12-18T10:31:41;0.30;99.90
24011;DHT22;12217;50.792;4.372;2022-12-18T10:34:11;0.30;99.90
24011;DHT22;12217;50.792;4.372;2022-12-18T10:36:37;0.40;99.90
24011;DHT22;12217;50.792;4.372;2022-12-18T10:39:17;0.40;99.90
24011;DHT22;12217;50.792;4.372;2022-12-18T10:41:43;0.50;99.90
24011;DHT22;12217;50.792;4.372;2022-12-18T10:46:40;0.60;99.90
24011;DHT22;12217;50.792;4.372;2022-12-18T10:49:22;0.70;99.90
24011;DHT22;12217;50.792;4.372;2022-12-18T10:51:48;0.80;99.90
24011;DHT22;12217;50.792;4.372;2022-12-18T10:54:17;0.70;99.90
24011;DHT22;12217;50.792;4.372;2022-12-18T10:56:43;0.80;99.90
24011;DHT22;12217;50.792;4.372;2022-12-18T10:59:11;0.70;99.90
24011;DHT22;12217;50.792;4.372;2022-12-18T11:01:58;0.80;99.90
24011;DHT22;12217;50.792;4.372;2022-12-18T11:04:33;0.80;99.90
24011;DHT22;12217;50.792;4.372;2022-12-18T11:07:07;0.90;99.90
24011;DHT22;12217;50.792;4.372;2022-12-18T11:09:35;0.90;99.90
24011;DHT22;12217;50.792;4.372;2022-12-18T11:14:50;0.80;99.90
24011;DHT22;12217;50.792;4.372;2022-12-18T11:17:30;0.90;99.90
24011;DHT22;12217;50.792;4.372;2022-12-18T11:19:58;0.90;99.90
24011;DHT22;12217;50.792;4.372;2022-12-18T11:22:32;1.00;99.90
24011;DHT22;12217;50.792;4.372;2022-12-18T11:25:17;1.10;99.90
24011;DHT22;12217;50.792;4.372;2022-12-18T11:27:56;1.10;99.90
24011;DHT22;12217;50.792;4.372;2022-12-18T11:30:33;1.00;99.90
24011;DHT22;12217;50.792;4.372;2022-12-18T11:33:12;1.10;99.90
24011;DHT22;12217;50.792;4.372;2022-12-18T11:38:35;1.20;99.90
24011;DHT22;12217;50.792;4.372;2022-12-18T11:41:28;1.30;99.90
24011;DHT22;12217;50.792;4.372;2022-12-18T11:44:24;1.30;99.90
24011;DHT22;12217;50.792;4.372;2022-12-18T11:46:55;1.30;99.90
24011;DHT22;12217;50.792;4.372;2022-12-18T11:49:28;1.30;99.90
24011;DHT22;12217;50.792;4.372;2022-12-18T11:52:23;1.20;99.90
24011;DHT22;12217;50.792;4.372;2022-12-18T11:54:56;1.20;99.90
24011;DHT22;12217;50.792;4.372;2022-12-18T11:57:41;1.30;99.90
24011;DHT22;12217;50.792;4.372;2022-12-18T12:00:20;1.40;99.90
24011;DHT22;12217;50.792;4.372;2022-12-18T12:03:13;1.50;99.90
24011;DHT22;12217;50.792;4.372;2022-12-18T12:06:19;1.60;99.90
24011;DHT22;12217;50.792;4.372;2022-12-18T12:09:13;1.40;99.90
24011;DHT22;12217;50.792;4.372;2022-12-18T12:14:46;1.40;99.90
24011;DHT22;12217;50.792;4.372;2022-12-18T12:23:17;1.40;99.90
24011;DHT22;12217;50.792;4.372;2022-12-18T12:31:47;1.50;99.90
24011;DHT22;12217;50.792;4.372;2022-12-18T12:34:20;1.60;99.90
24011;DHT22;12217;50.792;4.372;2022-12-18T12:39:18;1.80;99.90
24011;DHT22;12217;50.792;4.372;2022-12-18T12:41:46;2.00;99.90
24011;DHT22;12217;50.792;4.372;2022-12-18T12:44:39;1.90;99.90
24011;DHT22;12217;50.792;4.372;2022-12-18T12:47:18;1.90;99.90
24011;DHT22;12217;50.792;4.372;2022-12-18T12:49:46;1.90;99.90
24011;DHT22;12217;50.792;4.372;2022-12-18T12:52:18;1.60;99.90
24011;DHT22;12217;50.792;4.372;2022-12-18T12:54:47;1.40;99.90
24011;DHT22;12217;50.792;4.372;2022-12-18T12:57:23;1.40;99.90
24011;DHT22;12217;50.792;4.372;2022-12-18T13:00:10;1.40;99.90
24011;DHT22;12217;50.792;4.372;2022-12-18T13:05:25;1.50;99.90
24011;DHT22;12217;50.792;4.372;2022-12-18T13:07:54;1.60;99.90
24011;DHT22;12217;50.792;4.372;2022-12-18T13:10:25;1.50;99.90
24011;DHT22;12217;50.792;4.372;2022-12-18T13:13:02;1.60;99.90
24011;DHT22;12217;50.792;4.372;2022-12-18T13:18:14;1.50;99.90
24011;DHT22;12217;50.792;4.372;2022-12-18T13:29:01;2.00;99.90
24011;DHT22;12217;50.792;4.372;2022-12-18T13:31:02;2.10;99.90
24011;DHT22;12217;50.792;4.372;2022-12-18T13:33:46;2.10;99.90
24011;DHT22;12217;50.792;4.372;2022-12-18T13:36:35;2.10;99.90
24011;DHT22;12217;50.792;4.372;2022-12-18T13:41:41;1.70;99.90
24011;DHT22;12217;50.792;4.372;2022-12-18T13:44:33;1.70;99.90
24011;DHT22;12217;50.792;4.372;2022-12-18T13:47:02;1.70;99.90
24011;DHT22;12217;50.792;4.372;2022-12-18T13:49:39;1.70;99.90
24011;DHT22;12217;50.792;4.372;2022-12-18T13:52:38;1.70;99.90
24011;DHT22;12217;50.792;4.372;2022-12-18T13:55:10;1.80;99.90
24011;DHT22;12217;50.792;4.372;2022-12-18T13:57:40;1.80;99.90
24011;DHT22;12217;50.792;4.372;2022-12-18T14:00:26;2.00;99.90
24011;DHT22;12217;50.792;4.372;2022-12-18T14:02:56;1.90;99.90
24011;DHT22;12217;50.792;4.372;2022-12-18T14:07:53;1.60;99.90
24011;DHT22;12217;50.792;4.372;2022-12-18T14:10:19;1.60;99.90
24011;DHT22;12217;50.792;4.372;2022-12-18T14:12:48;1.60;99.90
24011;DHT22;12217;50.792;4.372;2022-12-18T14:20:47;1.70;99.90
24011;DHT22;12217;50.792;4.372;2022-12-18T14:26:01;1.70;99.90
24011;DHT22;12217;50.792;4.372;2022-12-18T14:28:28;1.80;99.90
24011;DHT22;12217;50.792;4.372;2022-12-18T14:30:54;1.70;99.90
24011;DHT22;12217;50.792;4.372;2022-12-18T14:33:25;1.80;99.90
24011;DHT22;12217;50.792;4.372;2022-12-18T14:38:36;2.00;99.90
24011;DHT22;12217;50.792;4.372;2022-12-18T14:41:12;2.10;99.90
24011;DHT22;12217;50.792;4.372;2022-12-18T14:43:40;2.10;99.90
24011;DHT22;12217;50.792;4.372;2022-12-18T14:46:26;2.00;99.90
24011;DHT22;12217;50.792;4.372;2022-12-18T14:48:53;1.90;99.90
24011;DHT22;12217;50.792;4.372;2022-12-18T14:51:21;1.70;99.90
24011;DHT22;12217;50.792;4.372;2022-12-18T14:53:52;1.70;99.90
24011;DHT22;12217;50.792;4.372;2022-12-18T15:01:38;1.60;99.90
24011;DHT22;12217;50.792;4.372;2022-12-18T15:04:19;1.70;99.90
24011;DHT22;12217;50.792;4.372;2022-12-18T15:06:48;1.60;99.90
24011;DHT22;12217;50.792;4.372;2022-12-18T15:09:26;1.50;99.90
24011;DHT22;12217;50.792;4.372;2022-12-18T15:12:00;1.60;99.90
24011;DHT22;12217;50.792;4.372;2022-12-18T15:14:41;1.60;99.90
24011;DHT22;12217;50.792;4.372;2022-12-18T15:17:27;1.60;99.90
24011;DHT22;12217;50.792;4.372;2022-12-18T15:20:09;1.60;99.90
24011;DHT22;12217;50.792;4.372;2022-12-18T15:22:36;1.60;99.90
24011;DHT22;12217;50.792;4.372;2022-12-18T15:25:03;1.50;99.90
24011;DHT22;12217;50.792;4.372;2022-12-18T15:27:46;1.50;99.90
24011;DHT22;12217;50.792;4.372;2022-12-18T15:30:23;1.40;99.90
24011;DHT22;12217;50.792;4.372;2022-12-18T15:32:50;1.50;99.90
24011;DHT22;12217;50.792;4.372;2022-12-18T15:35:24;1.40;99.90
24011;DHT22;12217;50.792;4.372;2022-12-18T15:37:51;1.60;99.90
24011;DHT22;12217;50.792;4.372;2022-12-18T15:40:22;1.50;99.90
24011;DHT22;12217;50.792;4.372;2022-12-18T15:42:49;1.50;99.90
24011;DHT22;12217;50.792;4.372;2022-12-18T15:45:35;1.50;99.90
24011;DHT22;12217;50.792;4.372;2022-12-18T15:48:00;1.50;99.90
24011;DHT22;12217;50.792;4.372;2022-12-18T15:50:26;1.50;99.90
24011;DHT22;12217;50.792;4.372;2022-12-18T15:52:53;1.60;99.90
24011;DHT22;12217;50.792;4.372;2022-12-18T15:55:22;1.60;99.90
24011;DHT22;12217;50.792;4.372;2022-12-18T15:58:08;1.50;99.90
24011;DHT22;12217;50.792;4.372;2022-12-18T16:00:35;1.50;99.90
24011;DHT22;12217;50.792;4.372;2022-12-18T16:03:02;1.60;99.90
24011;DHT22;12217;50.792;4.372;2022-12-18T16:05:28;1.60;99.90
24011;DHT22;12217;50.792;4.372;2022-12-18T16:07:54;1.50;99.90
24011;DHT22;12217;50.792;4.372;2022-12-18T16:10:20;1.50;99.90
24011;DHT22;12217;50.792;4.372;2022-12-18T16:12:46;1.40;99.90
24011;DHT22;12217;50.792;4.372;2022-12-18T16:15:14;1.40;99.90
24011;DHT22;12217;50.792;4.372;2022-12-18T16:17:42;1.50;99.90
24011;DHT22;12217;50.792;4.372;2022-12-18T16:20:16;1.40;99.90
24011;DHT22;12217;50.792;4.372;2022-12-18T16:22:43;1.50;99.90
24011;DHT22;12217;50.792;4.372;2022-12-18T16:25:20;1.60;99.90
24011;DHT22;12217;50.792;4.372;2022-12-18T16:27:46;1.60;99.90
24011;DHT22;12217;50.792;4.372;2022-12-18T16:30:16;1.60;99.90
24011;DHT22;12217;50.792;4.372;2022-12-18T16:32:42;1.60;99.90
24011;DHT22;12217;50.792;4.372;2022-12-18T16:35:17;1.50;99.90
24011;DHT22;12217;50.792;4.372;2022-12-18T16:37:43;1.50;99.90
24011;DHT22;12217;50.792;4.372;2022-12-18T16:40:11;1.40;99.90
24011;DHT22;12217;50.792;4.372;2022-12-18T16:42:38;1.50;99.90
24011;DHT22;12217;50.792;4.372;2022-12-18T16:45:06;1.50;99.90
24011;DHT22;12217;50.792;4.372;2022-12-18T16:47:32;1.60;99.90
24011;DHT22;12217;50.792;4.372;2022-12-18T16:49:58;1.60;99.90
24011;DHT22;12217;50.792;4.372;2022-12-18T16:52:24;1.80;99.90
24011;DHT22;12217;50.792;4.372;2022-12-18T16:54:49;1.80;99.90
24011;DHT22;12217;50.792;4.372;2022-12-18T16:57:17;1.80;99.90
24011;DHT22;12217;50.792;4.372;2022-12-18T16:59:43;1.80;99.90
24011;DHT22;12217;50.792;4.372;2022-12-18T17:02:14;1.70;99.90
24011;DHT22;12217;50.792;4.372;2022-12-18T17:04:40;1.70;99.90
24011;DHT22;12217;50.792;4.372;2022-12-18T17:07:07;1.70;99.90
24011;DHT22;12217;50.792;4.372;2022-12-18T17:09:32;1.70;99.90
24011;DHT22;12217;50.792;4.372;2022-12-18T17:11:58;1.70;99.90
24011;DHT22;12217;50.792;4.372;2022-12-18T17:14:24;1.60;99.90
24011;DHT22;12217;50.792;4.372;2022-12-18T17:16:52;1.60;99.90
24011;DHT22;12217;50.792;4.372;2022-12-18T17:19:18;1.70;99.90
24011;DHT22;12217;50.792;4.372;2022-12-18T17:21:46;1.70;99.90
24011;DHT22;12217;50.792;4.372;2022-12-18T17:24:12;1.70;99.90
24011;DHT22;12217;50.792;4.372;2022-12-18T17:26:38;1.70;99.90
24011;DHT22;12217;50.792;4.372;2022-12-18T17:29:04;1.70;99.90
24011;DHT22;12217;50.792;4.372;2022-12-18T17:31:30;1.70;99.90
24011;DHT22;12217;50.792;4.372;2022-12-18T17:33:56;1.80;99.90
24011;DHT22;12217;50.792;4.372;2022-12-18T17:36:23;1.70;99.90
24011;DHT22;12217;50.792;4.372;2022-12-18T17:38:55;1.70;99.90